Time;durP1;ratioP1;P1;durP2;ratioP2;P2;SDS_P1;SDS_P2;PMS_P1;PMS_P2;Temp;Humidity;BMP_temperature;BMP_pressure;BME280_temperature;BME280_humidity;BME280_pressure;Samples;Min_cycle;Max_cycle;Signal;HPM_P1;HPM_P2
2023/03/15 00:00:19;;;;;;;2.70;2.00;;;;;;;0.35;100.00;95131.88;1003547;29;20053;-72
2023/03/15 00:00:52;;;;;;;4.72;2.13;;;;;;;0.40;100.00;95142.31;1003156;29;20037;-74
2023/03/15 00:01:25;;;;;;;5.46;2.44;;;;;;;0.38;100.00;95145.13;1003043;29;20104;-72
2023/03/15 00:01:55;;;;;;;6.98;1.82;;;;;;;0.39;100.00;95145.91;1007394;29;20155;-73
2023/03/15 00:02:26;;;;;;;3.85;2.20;;;;;;;0.40;100.00;95148.28;1003299;29;20065;-74
2023/03/15 00:02:56;;;;;;;5.05;2.20;;;;;;;0.39;100.00;95146.69;1007634;29;20033;-74
2023/03/15 00:03:27;;;;;;;2.83;1.90;;;;;;;0.42;100.00;95153.22;1011162;29;20032;-73
2023/03/15 00:03:57;;;;;;;4.15;2.30;;;;;;;0.36;100.00;95136.00;1014948;29;20028;-73
2023/03/15 00:04:28;;;;;;;5.40;1.85;;;;;;;0.38;100.00;95147.69;1011042;29;20020;-73
2023/03/15 00:04:58;;;;;;;1.90;1.60;;;;;;;0.38;100.00;95144.34;1010689;29;20056;-73
2023/03/15 00:05:30;;;;;;;6.55;2.20;;;;;;;0.36;100.00;95141.97;1006332;29;20114;-73
2023/03/15 00:06:01;;;;;;;2.60;1.90;;;;;;;0.38;100.00;95149.50;1012961;29;20063;-72
2023/03/15 00:06:32;;;;;;;6.05;2.50;;;;;;;0.31;100.00;95135.88;1018707;29;20031;-72
2023/03/15 00:07:03;;;;;;;2.80;1.86;;;;;;;0.34;100.00;95138.03;1011045;29;20024;-72
2023/03/15 00:07:33;;;;;;;5.50;2.33;;;;;;;0.36;100.00;95143.75;1010510;29;20557;-73
2023/03/15 00:08:06;;;;;;;3.90;2.03;;;;;;;0.36;100.00;95141.16;1010818;29;20016;-72
2023/03/15 00:08:37;;;;;;;3.00;2.06;;;;;;;0.36;100.00;95131.63;1007151;29;20032;-73
2023/03/15 00:09:10;;;;;;;4.05;1.90;;;;;;;0.36;100.00;95138.59;1010733;29;20052;-72
2023/03/15 00:09:41;;;;;;;2.12;1.74;;;;;;;0.22;100.00;95127.59;1006614;29;20029;-73
2023/03/15 00:10:11;;;;;;;4.15;2.35;;;;;;;0.28;100.00;95126.75;1007331;29;20021;-73
2023/03/15 00:10:42;;;;;;;8.10;2.10;;;;;;;0.33;100.00;95133.84;1003462;29;20017;-73
2023/03/15 00:11:14;;;;;;;4.07;2.03;;;;;;;0.26;100.00;95123.59;1007104;29;20017;-73
2023/03/15 00:11:44;;;;;;;4.06;2.00;;;;;;;0.33;100.00;95136.44;999128;29;20515;-73
2023/03/15 00:12:15;;;;;;;2.47;1.80;;;;;;;0.23;100.00;95127.41;999306;29;20034;-73
2023/03/15 00:12:45;;;;;;;3.85;2.00;;;;;;;0.32;100.00;95134.88;1000595;29;20606;-72
2023/03/15 00:13:17;;;;;;;5.93;1.73;;;;;;;0.28;100.00;95133.72;1003049;29;20397;-73
2023/03/15 00:13:47;;;;;;;3.00;1.74;;;;;;;0.33;100.00;95136.44;1007051;29;20112;-72
2023/03/15 00:14:18;;;;;;;2.28;1.63;;;;;;;0.32;100.00;95134.88;1011409;29;20037;-72
2023/03/15 00:14:49;;;;;;;3.60;1.90;;;;;;;0.34;100.00;95143.19;1007958;29;20800;-74
2023/03/15 00:15:19;;;;;;;1.98;1.56;;;;;;;0.27;100.00;95137.28;1007845;29;20040;-72
2023/03/15 00:15:51;;;;;;;2.45;2.03;;;;;;;0.28;100.00;95138.88;1004533;29;20085;-72
2023/03/15 00:16:26;;;;;;;3.52;1.76;;;;;;;0.35;100.00;95139.59;1001024;29;20108;-72
2023/03/15 00:16:56;;;;;;;2.98;1.80;;;;;;;0.30;100.00;95129.13;1007881;29;20601;-72
2023/03/15 00:17:26;;;;;;;3.13;1.88;;;;;;;0.32;100.00;95138.22;1003079;29;20083;-73
2023/03/15 00:17:57;;;;;;;8.27;2.15;;;;;;;0.38;100.00;95139.19;1003126;29;20481;-74
2023/03/15 00:18:28;;;;;;;2.75;1.80;;;;;;;0.33;100.00;95133.84;1006874;29;20025;-72
2023/03/15 00:18:58;;;;;;;3.33;1.83;;;;;;;0.34;100.00;95128.50;1010759;29;20124;-72
2023/03/15 00:19:29;;;;;;;2.97;1.60;;;;;;;0.41;100.00;95139.53;1011087;29;20023;-74
2023/03/15 00:20:00;;;;;;;3.33;1.95;;;;;;;0.36;100.00;95128.28;1014209;29;20466;-73
2023/03/15 00:20:30;;;;;;;3.22;1.95;;;;;;;0.43;100.00;95144.47;1010556;29;20072;-73
2023/03/15 00:21:01;;;;;;;5.68;2.10;;;;;;;0.43;100.00;95137.50;1006762;29;20273;-73
2023/03/15 00:21:31;;;;;;;3.33;1.80;;;;;;;0.45;100.00;95142.47;1009639;29;20021;-72
2023/03/15 00:22:01;;;;;;;3.28;1.70;;;;;;;0.47;100.00;95143.84;1010539;29;20024;-74
2023/03/15 00:22:32;;;;;;;3.17;1.80;;;;;;;0.50;100.00;95141.81;1014365;29;20052;-72
2023/03/15 00:23:02;;;;;;;2.97;1.92;;;;;;;0.49;100.00;95141.03;1018031;29;20028;-74
2023/03/15 00:23:33;;;;;;;1.65;1.15;;;;;;;0.50;100.00;95137.44;1014588;29;20028;-73
2023/03/15 00:24:04;;;;;;;1.98;1.60;;;;;;;0.51;100.00;95151.94;1014226;29;20027;-73
2023/03/15 00:24:34;;;;;;;5.05;1.70;;;;;;;0.49;100.00;95142.84;1010538;29;20144;-72
2023/03/15 00:25:05;;;;;;;3.42;1.23;;;;;;;0.51;100.00;95146.78;1003070;29;20049;-73
2023/03/15 00:25:36;;;;;;;2.50;1.75;;;;;;;0.51;100.00;95146.78;1006338;29;20039;-73
2023/03/15 00:26:06;;;;;;;2.38;1.50;;;;;;;0.56;100.00;95153.88;1002765;29;20636;-73
2023/03/15 00:26:37;;;;;;;4.15;1.73;;;;;;;0.54;100.00;95151.53;1006932;29;20724;-73
2023/03/15 00:27:07;;;;;;;1.80;1.40;;;;;;;0.54;100.00;95143.78;1006533;29;20431;-72
2023/03/15 00:27:38;;;;;;;1.90;1.60;;;;;;;0.56;100.00;95151.31;1007096;29;20142;-73
2023/03/15 00:28:08;;;;;;;2.65;1.80;;;;;;;0.56;100.00;95146.94;1003046;29;20037;-72
2023/03/15 00:28:39;;;;;;;2.15;1.80;;;;;;;0.57;100.00;95152.88;998878;29;20094;-73
2023/03/15 00:29:09;;;;;;;4.57;1.70;;;;;;;0.56;100.00;95149.50;1007145;29;20025;-73
2023/03/15 00:29:40;;;;;;;2.10;1.77;;;;;;;0.55;100.00;95152.31;1006830;29;20020;-73
2023/03/15 00:30:10;;;;;;;4.13;1.70;;;;;;;0.54;100.00;95154.09;1010677;29;20097;-72
2023/03/15 00:30:41;;;;;;;6.88;1.80;;;;;;;0.49;100.00;95135.09;1014538;29;20028;-73
2023/03/15 00:31:22;;;;;;;2.33;1.63;;;;;;;0.54;100.00;95151.53;1014747;29;20020;-73
2023/03/15 00:31:52;;;;;;;2.98;1.60;;;;;;;0.49;100.00;95150.59;1017165;29;20157;-72
2023/03/15 00:32:23;;;;;;;1.45;1.25;;;;;;;0.45;100.00;95148.44;1019860;29;20031;-73
2023/03/15 00:32:53;;;;;;;2.45;1.67;;;;;;;0.47;100.00;95149.00;1020825;29;20027;-72
2023/03/15 00:33:24;;;;;;;1.75;1.52;;;;;;;0.51;100.00;95149.38;1010812;29;20016;-73
2023/03/15 00:33:54;;;;;;;1.92;1.73;;;;;;;0.50;100.00;95147.00;1010329;29;20059;-73
2023/03/15 00:34:25;;;;;;;2.13;1.52;;;;;;;0.50;100.00;95145.19;1011091;29;20036;-73
2023/03/15 00:34:55;;;;;;;4.18;1.80;;;;;;;0.49;100.00;95148.78;1010705;29;20017;-72
2023/03/15 00:35:26;;;;;;;4.72;1.83;;;;;;;0.49;100.00;95148.00;1013681;29;20028;-72
2023/03/15 00:35:56;;;;;;;1.98;1.63;;;;;;;0.52;100.00;95153.53;1014768;29;20032;-72
2023/03/15 00:36:26;;;;;;;2.28;1.83;;;;;;;0.51;100.00;95146.78;1006466;29;20024;-72
2023/03/15 00:36:57;;;;;;;2.42;1.67;;;;;;;0.51;100.00;95156.34;1006540;29;20056;-73
2023/03/15 00:37:28;;;;;;;2.85;1.73;;;;;;;0.49;100.00;95156.53;1007358;29;20017;-73
2023/03/15 00:37:58;;;;;;;3.15;1.77;;;;;;;0.49;100.00;95151.38;1010651;29;20458;-73
2023/03/15 00:38:29;;;;;;;2.80;1.80;;;;;;;0.52;100.00;95145.78;1011098;29;20518;-72
2023/03/15 00:38:59;;;;;;;1.92;1.48;;;;;;;0.47;100.00;95148.22;1014423;29;20016;-73
2023/03/15 00:39:30;;;;;;;1.67;1.50;;;;;;;0.52;100.00;95152.75;1010547;29;20025;-73
2023/03/15 00:40:00;;;;;;;4.00;1.75;;;;;;;0.50;100.00;95152.94;1011093;29;20025;-73
2023/03/15 00:40:30;;;;;;;3.60;1.80;;;;;;;0.52;100.00;95153.53;1008366;29;20024;-73
2023/03/15 00:41:11;;;;;;;2.50;1.92;;;;;;;0.47;100.00;95153.38;1006709;29;20041;-72
2023/03/15 00:41:44;;;;;;;4.45;1.83;;;;;;;0.52;100.00;95155.31;1010749;29;20028;-73
2023/03/15 00:42:14;;;;;;;3.46;1.90;;;;;;;0.55;100.00;95158.25;1014402;29;20032;-73
2023/03/15 00:42:49;;;;;;;3.22;1.83;;;;;;;0.54;100.00;95158.47;1016462;29;20109;-73
2023/03/15 00:43:19;;;;;;;2.30;1.92;;;;;;;0.48;100.00;95147.22;1017994;29;20446;-73
2023/03/15 00:43:50;;;;;;;2.72;1.70;;;;;;;0.49;100.00;95148.00;1018160;29;20039;-73
2023/03/15 00:44:23;;;;;;;3.68;1.94;;;;;;;0.53;100.00;95152.50;1018749;29;20111;-72
2023/03/15 00:44:56;;;;;;;3.40;2.14;;;;;;;0.56;100.00;95157.25;1010595;29;20116;-73
2023/03/15 00:45:27;;;;;;;2.68;1.90;;;;;;;0.51;100.00;95151.94;1009768;29;20032;-72
2023/03/15 00:45:57;;;;;;;2.20;1.80;;;;;;;0.54;100.00;95153.28;1007470;29;20542;-73
2023/03/15 00:46:28;;;;;;;4.13;2.00;;;;;;;0.53;100.00;95143.97;1014481;29;20036;-72
2023/03/15 00:46:58;;;;;;;2.80;1.98;;;;;;;0.56;100.00;95151.31;1014830;29;20040;-73
2023/03/15 00:47:29;;;;;;;2.25;1.80;;;;;;;0.60;100.00;95163.56;1010448;29;20020;-72
2023/03/15 00:47:59;;;;;;;2.20;1.67;;;;;;;0.60;100.00;95163.56;1011002;29;20056;-73
2023/03/15 00:48:30;;;;;;;3.40;2.08;;;;;;;0.56;100.00;95157.25;1010738;29;20556;-73
2023/03/15 00:49:00;;;;;;;2.58;1.85;;;;;;;0.58;100.00;95151.88;1010478;29;20040;-73
2023/03/15 00:49:31;;;;;;;4.60;2.00;;;;;;;0.53;100.00;95149.94;1010844;29;20052;-72
2023/03/15 00:50:02;;;;;;;3.65;1.52;;;;;;;0.54;100.00;95159.28;1009651;29;20044;-73
2023/03/15 00:50:32;;;;;;;3.25;1.50;;;;;;;0.55;100.00;95153.09;1005905;29;20124;-73
2023/03/15 00:51:04;;;;;;;6.35;2.45;;;;;;;0.54;100.00;95148.94;1014869;29;20741;-72
2023/03/15 00:51:36;;;;;;;3.34;1.92;;;;;;;0.54;100.00;95154.09;1010559;29;20036;-73
2023/03/15 00:52:06;;;;;;;2.90;2.20;;;;;;;0.56;100.00;95151.31;1011328;29;20024;-72
2023/03/15 00:52:37;;;;;;;4.82;2.10;;;;;;;0.51;100.00;95144.22;1006658;29;20103;-72
2023/03/15 00:53:08;;;;;;;4.07;2.13;;;;;;;0.58;100.00;95150.09;1003144;29;20104;-73
2023/03/15 00:53:42;;;;;;;3.78;1.67;;;;;;;0.53;100.00;95149.94;1006919;29;20033;-73
2023/03/15 00:54:12;;;;;;;2.26;1.84;;;;;;;0.61;100.00;95165.16;1006585;29;20027;-73
2023/03/15 00:54:43;;;;;;;4.32;2.42;;;;;;;0.64;100.00;95164.72;1002826;29;20022;-71
2023/03/15 00:55:15;;;;;;;4.43;2.22;;;;;;;0.62;100.00;95166.72;1002930;29;20025;-73
2023/03/15 00:55:45;;;;;;;5.10;2.40;;;;;;;0.61;100.00;95169.53;1004223;29;20519;-73
2023/03/15 00:56:18;;;;;;;4.43;2.10;;;;;;;0.53;100.00;95162.06;1015134;29;20012;-73
2023/03/15 00:56:48;;;;;;;3.48;2.20;;;;;;;0.61;100.00;95175.47;1014388;29;20020;-73
2023/03/15 00:57:19;;;;;;;6.40;2.40;;;;;;;0.57;100.00;95169.16;1014691;29;20490;-73
2023/03/15 00:57:49;;;;;;;3.00;2.10;;;;;;;0.62;100.00;95176.25;1010774;29;20036;-72
2023/03/15 00:58:20;;;;;;;3.13;2.60;;;;;;;0.59;100.00;95167.16;1007008;29;20032;-72
2023/03/15 00:58:53;;;;;;;2.17;1.92;;;;;;;0.66;100.00;95170.44;1002943;29;20018;-73
2023/03/15 00:59:24;;;;;;;2.84;1.96;;;;;;;0.60;100.00;95167.94;1007575;29;20025;-73
2023/03/15 00:59:55;;;;;;;4.43;2.53;;;;;;;0.69;100.00;95172.59;1006840;29;20041;-73
2023/03/15 01:00:26;;;;;;;2.92;2.13;;;;;;;0.69;100.00;95179.56;1010942;29;20024;-74
2023/03/15 01:00:57;;;;;;;3.70;2.48;;;;;;;0.73;100.00;95177.34;1008320;29;20085;-73
2023/03/15 01:01:28;;;;;;;3.10;2.28;;;;;;;0.67;100.00;95166.06;1007135;29;20588;-73
2023/03/15 01:01:58;;;;;;;4.58;2.46;;;;;;;0.67;100.00;95179.78;1006800;29;20571;-73
2023/03/15 01:02:30;;;;;;;2.83;2.25;;;;;;;0.68;100.00;95180.56;1006531;29;20093;-72
2023/03/15 01:03:00;;;;;;;3.52;2.20;;;;;;;0.70;100.00;95178.56;1007088;29;20033;-73
2023/03/15 01:03:31;;;;;;;2.75;2.20;;;;;;;0.69;100.00;95180.34;1006895;29;20102;-72
2023/03/15 01:04:01;;;;;;;3.35;2.10;;;;;;;0.63;100.00;95170.09;999223;29;20030;-72
2023/03/15 01:04:31;;;;;;;2.75;2.20;;;;;;;0.67;100.00;95184.97;1006813;29;20625;-72
2023/03/15 01:05:06;;;;;;;5.93;2.33;;;;;;;0.61;100.00;95172.91;1002860;29;20029;-73
2023/03/15 01:05:36;;;;;;;4.06;2.44;;;;;;;0.70;100.00;95189.69;1003008;29;20135;-73
2023/03/15 01:06:14;;;;;;;5.22;2.33;;;;;;;0.71;100.00;95182.72;1007185;29;20101;-72
2023/03/15 01:06:45;;;;;;;3.56;2.60;;;;;;;0.75;100.00;95178.72;1010694;29;20020;-72
2023/03/15 01:07:15;;;;;;;3.60;2.25;;;;;;;0.74;100.00;95173.75;1016852;29;20378;-73
2023/03/15 01:07:46;;;;;;;3.65;2.25;;;;;;;0.79;100.00;95184.22;1014533;29;20032;-73
2023/03/15 01:08:16;;;;;;;5.05;2.67;;;;;;;0.77;100.00;95184.47;1014574;29;20124;-73
2023/03/15 01:08:47;;;;;;;5.47;1.88;;;;;;;0.78;100.00;95186.03;1010946;29;20048;-73
2023/03/15 01:09:17;;;;;;;2.95;2.10;;;;;;;0.75;100.00;95180.50;1014612;29;20020;-73
2023/03/15 01:09:48;;;;;;;2.85;2.05;;;;;;;0.74;100.00;95176.31;1007101;29;20471;-73
2023/03/15 01:10:18;;;;;;;4.05;2.50;;;;;;;0.75;100.00;95185.69;1006611;29;20578;-73
2023/03/15 01:10:49;;;;;;;2.38;1.88;;;;;;;0.69;100.00;95177.75;1002924;29;20018;-72
2023/03/15 01:11:23;;;;;;;4.93;2.47;;;;;;;0.72;100.00;95178.34;1003251;29;20018;-73
2023/03/15 01:11:53;;;;;;;2.46;2.02;;;;;;;0.77;100.00;95188.81;1003217;29;20017;-72
2023/03/15 01:12:23;;;;;;;3.45;2.67;;;;;;;0.74;100.00;95181.50;1007157;29;20037;-72
2023/03/15 01:12:54;;;;;;;5.95;2.60;;;;;;;0.72;100.00;95179.13;1007239;29;20021;-72
2023/03/15 01:13:24;;;;;;;4.53;2.38;;;;;;;0.70;100.00;95174.19;1007005;29;20076;-73
2023/03/15 01:13:56;;;;;;;5.13;2.60;;;;;;;0.76;100.00;95179.50;1010591;29;20061;-73
2023/03/15 01:14:26;;;;;;;3.64;2.58;;;;;;;0.67;100.00;95164.31;1006412;29;20017;-73
2023/03/15 01:14:57;;;;;;;4.25;2.38;;;;;;;0.80;100.00;95175.47;1001905;29;20021;-72
2023/03/15 01:15:28;;;;;;;4.32;2.56;;;;;;;0.79;100.00;95179.06;1001530;29;20022;-73
2023/03/15 01:15:58;;;;;;;7.22;2.83;;;;;;;0.82;100.00;95165.72;1003177;29;20033;-73
2023/03/15 01:16:29;;;;;;;4.43;2.80;;;;;;;0.79;100.00;95166.16;1013900;29;20023;-72
2023/03/15 01:16:59;;;;;;;4.85;2.80;;;;;;;0.84;100.00;95168.88;1014866;29;20088;-73
2023/03/15 01:17:30;;;;;;;4.32;2.70;;;;;;;0.82;100.00;95166.53;1014646;29;20498;-73
2023/03/15 01:18:00;;;;;;;4.07;2.58;;;;;;;0.87;100.00;95169.25;1014634;29;20119;-73
2023/03/15 01:18:31;;;;;;;3.67;2.58;;;;;;;0.87;100.00;95164.09;1014425;29;20020;-72
2023/03/15 01:19:01;;;;;;;3.50;2.65;;;;;;;0.88;100.00;95173.41;1014491;29;20020;-72
2023/03/15 01:19:31;;;;;;;3.53;2.75;;;;;;;0.89;100.00;95171.59;1018585;29;20031;-72
2023/03/15 01:20:04;;;;;;;7.53;2.67;;;;;;;0.88;100.00;95170.03;1015518;29;20047;-73
2023/03/15 01:20:34;;;;;;;4.80;2.74;;;;;;;0.90;100.00;95168.00;1006442;29;20021;-74
2023/03/15 01:21:06;;;;;;;4.38;2.83;;;;;;;0.84;100.00;95174.03;1009578;29;20032;-73
2023/03/15 01:21:36;;;;;;;5.08;2.82;;;;;;;0.84;100.00;95177.44;1006583;29;20040;-73
2023/03/15 01:22:07;;;;;;;4.75;2.80;;;;;;;0.81;100.00;95175.28;1010382;29;20498;-72
2023/03/15 01:22:40;;;;;;;6.07;3.00;;;;;;;0.82;100.00;95176.84;1014452;29;20028;-72
2023/03/15 01:23:10;;;;;;;6.36;2.80;;;;;;;0.82;100.00;95178.66;1014809;29;20025;-73
2023/03/15 01:23:41;;;;;;;3.65;2.70;;;;;;;0.84;100.00;95179.19;1010891;29;20032;-73
2023/03/15 01:24:13;;;;;;;5.70;2.80;;;;;;;0.79;100.00;95171.31;1021652;29;20015;-73
2023/03/15 01:24:43;;;;;;;4.38;2.96;;;;;;;0.83;100.00;95188.75;1014094;29;20026;-73
2023/03/15 01:25:14;;;;;;;5.03;2.70;;;;;;;0.82;100.00;95181.22;1010587;29;20495;-72
2023/03/15 01:25:44;;;;;;;3.40;2.70;;;;;;;0.72;100.00;95171.41;1009937;29;20028;-72
2023/03/15 01:26:15;;;;;;;4.25;2.65;;;;;;;0.79;100.00;95191.97;1010361;29;20024;-72
2023/03/15 01:26:45;;;;;;;6.28;3.00;;;;;;;0.80;100.00;95188.38;1003391;29;20029;-72
2023/03/15 01:27:16;;;;;;;3.13;2.70;;;;;;;0.79;100.00;95184.22;1014346;29;20690;-73
2023/03/15 01:27:46;;;;;;;6.05;2.50;;;;;;;0.78;100.00;95198.94;1014858;29;20031;-73
2023/03/15 01:28:17;;;;;;;3.53;2.67;;;;;;;0.82;100.00;95194.13;1014269;29;20016;-74
2023/03/15 01:28:47;;;;;;;3.95;2.75;;;;;;;0.81;100.00;95190.00;1011068;29;20063;-72
2023/03/15 01:29:18;;;;;;;4.68;2.95;;;;;;;0.82;100.00;95191.56;1010737;29;20025;-72
2023/03/15 01:29:48;;;;;;;3.58;2.80;;;;;;;0.85;100.00;95196.28;1006860;29;20653;-73
2023/03/15 01:30:19;;;;;;;3.85;3.10;;;;;;;0.84;100.00;95195.50;1016249;29;20020;-73
2023/03/15 01:30:50;;;;;;;3.20;2.70;;;;;;;0.84;100.00;95195.50;1018171;29;20051;-72
2023/03/15 01:31:25;;;;;;;4.04;2.44;;;;;;;0.79;100.00;95190.19;1018344;29;20027;-72
2023/03/15 01:31:55;;;;;;;3.56;2.92;;;;;;;0.85;100.00;95199.66;1011093;29;20391;-73
2023/03/15 01:32:26;;;;;;;6.93;3.08;;;;;;;0.83;100.00;95190.53;1006620;29;20032;-73
2023/03/15 01:32:56;;;;;;;4.70;2.58;;;;;;;0.88;100.00;95201.03;1009758;29;20840;-72
2023/03/15 01:33:27;;;;;;;3.58;2.45;;;;;;;0.84;100.00;95200.69;1014956;29;20035;-73
2023/03/15 01:33:58;;;;;;;4.35;2.80;;;;;;;0.82;100.00;95191.56;1020005;29;20114;-72
2023/03/15 01:34:28;;;;;;;5.05;3.17;;;;;;;0.86;100.00;95203.81;1014797;29;20023;-74
2023/03/15 01:34:58;;;;;;;3.53;2.75;;;;;;;0.84;100.00;95200.69;1009564;29;20029;-72
2023/03/15 01:35:29;;;;;;;5.65;3.28;;;;;;;0.85;100.00;95201.47;1009844;29;20096;-73
2023/03/15 01:36:01;;;;;;;5.15;2.97;;;;;;;0.69;100.00;95185.50;1007194;29;20021;-73
2023/03/15 01:36:31;;;;;;;4.56;2.88;;;;;;;0.84;100.00;95199.84;1006598;29;20017;-73
2023/03/15 01:37:02;;;;;;;4.15;2.97;;;;;;;0.76;100.00;95197.56;1007490;29;20025;-72
2023/03/15 01:37:33;;;;;;;5.15;3.25;;;;;;;0.87;100.00;95199.44;1006981;29;20499;-72
2023/03/15 01:38:04;;;;;;;4.90;3.17;;;;;;;0.85;100.00;95204.03;1006695;29;20017;-73
2023/03/15 01:38:34;;;;;;;5.55;3.35;;;;;;;0.70;100.00;95188.88;1007073;29;20021;-72
2023/03/15 01:39:05;;;;;;;4.55;2.92;;;;;;;0.72;100.00;95186.09;1013979;29;20113;-72
2023/03/15 01:39:35;;;;;;;6.40;3.28;;;;;;;0.74;100.00;95197.81;1010385;29;20111;-73
2023/03/15 01:40:08;;;;;;;5.88;3.60;;;;;;;0.74;100.00;95204.72;1014696;29;20457;-72
2023/03/15 01:40:43;;;;;;;4.20;2.84;;;;;;;0.77;100.00;95204.31;1006386;29;20104;-72
2023/03/15 01:41:13;;;;;;;4.26;2.78;;;;;;;0.73;100.00;95198.00;1006863;29;20165;-74
2023/03/15 01:41:43;;;;;;;4.03;3.10;;;;;;;0.80;100.00;95206.47;1006706;29;20044;-73
2023/03/15 01:42:14;;;;;;;4.15;2.90;;;;;;;0.76;100.00;95202.72;1008391;29;20017;-72
2023/03/15 01:43:03;;;;;;;4.15;3.10;;;;;;;0.77;100.00;95209.47;1014576;29;20019;-72
2023/03/15 01:43:33;;;;;;;5.18;3.18;;;;;;;0.77;100.00;95209.47;1016668;29;20568;-74
2023/03/15 01:44:07;;;;;;;4.78;3.40;;;;;;;0.73;100.00;95203.16;1020561;29;20027;-72
2023/03/15 01:44:53;;;;;;;6.12;3.22;;;;;;;0.75;100.00;95193.41;1014872;29;20025;-73
2023/03/15 01:45:48;;;;;;;5.24;2.98;;;;;;;0.80;100.00;95209.03;1006260;29;20021;-73
2023/03/15 01:46:25;;;;;;;4.96;3.40;;;;;;;0.81;100.00;95213.22;1010763;29;20013;-73
2023/03/15 01:46:56;;;;;;;5.56;3.38;;;;;;;0.75;100.00;95211.50;1015173;29;20032;-73
2023/03/15 01:47:26;;;;;;;6.82;3.50;;;;;;;0.82;100.00;95225.13;1016863;29;20478;-73
2023/03/15 01:47:57;;;;;;;6.50;3.47;;;;;;;0.77;100.00;95224.97;1014086;29;20017;-72
2023/03/15 01:48:34;;;;;;;6.32;3.30;;;;;;;0.85;100.00;95248.72;1002652;29;20022;-73
2023/03/15 01:49:06;;;;;;;6.14;2.96;;;;;;;0.81;100.00;95257.13;1002637;29;20018;-73
2023/03/15 01:49:37;;;;;;;4.76;2.92;;;;;;;0.62;100.00;95249.31;1006637;29;20495;-73
2023/03/15 01:50:08;;;;;;;4.45;2.97;;;;;;;0.42;100.00;95257.22;1001293;29;20029;-74
2023/03/15 01:50:39;;;;;;;4.56;2.82;;;;;;;0.32;100.00;95258.72;1006272;29;20376;-72
2023/03/15 01:51:20;;;;;;;3.47;2.00;;;;;;;0.16;100.00;95255.63;1010648;29;20080;-74
2023/03/15 01:51:52;;;;;;;3.04;1.90;;;;;;;0.08;100.00;95263.63;1014338;29;20485;-73
2023/03/15 01:52:25;;;;;;;3.64;1.48;;;;;;;-0.10;100.00;95255.81;1014295;29;20026;-73
2023/03/15 01:52:55;;;;;;;2.46;1.68;;;;;;;-0.21;100.00;95269.34;1014363;29;20043;-73
2023/03/15 01:53:26;;;;;;;3.45;2.03;;;;;;;-0.28;100.00;95264.25;1014514;29;20133;-74
2023/03/15 01:54:28;;;;;;;4.35;2.20;;;;;;;-0.31;100.00;95273.16;1002517;29;20109;-73
2023/03/15 01:55:12;;;;;;;5.60;2.28;;;;;;;-0.46;100.00;95254.63;999049;29;20868;-73
2023/03/15 01:55:43;;;;;;;6.92;2.66;;;;;;;-0.42;100.00;95263.50;1005977;29;20078;-74
2023/03/15 01:56:13;;;;;;;5.57;2.53;;;;;;;-0.48;100.00;95257.38;1007021;29;20116;-73
2023/03/15 01:56:50;;;;;;;5.68;3.20;;;;;;;-0.47;100.00;95265.91;1002734;29;20018;-73
2023/03/15 01:57:29;;;;;;;4.76;2.96;;;;;;;-0.49;100.00;95263.53;1002686;29;20029;-74
2023/03/15 01:58:00;;;;;;;7.44;3.14;;;;;;;-0.50;100.00;95264.53;1010601;29;20036;-73
2023/03/15 01:58:30;;;;;;;6.57;3.80;;;;;;;-0.54;100.00;95260.81;1006504;29;20033;-73
2023/03/15 01:59:02;;;;;;;5.35;3.67;;;;;;;-0.47;100.00;95273.63;1010556;29;20017;-73
2023/03/15 01:59:35;;;;;;;7.04;3.88;;;;;;;-0.51;100.00;95272.47;1010407;29;20557;-73
2023/03/15 02:00:12;;;;;;;7.72;4.42;;;;;;;-0.50;100.00;95274.06;1002470;29;20021;-74
2023/03/15 02:00:42;;;;;;;11.52;4.90;;;;;;;-0.55;100.00;95269.50;1006594;29;20551;-73
2023/03/15 02:01:14;;;;;;;12.13;4.95;;;;;;;-0.49;100.00;95280.78;1010454;29;20028;-73
2023/03/15 02:01:49;;;;;;;12.22;4.88;;;;;;;-0.52;100.00;95273.47;1011774;29;20533;-74
2023/03/15 02:02:21;;;;;;;11.48;5.70;;;;;;;-0.58;100.00;95269.13;1010099;29;20027;-73
2023/03/15 02:02:54;;;;;;;7.70;4.44;;;;;;;-0.54;100.00;95281.41;1011230;29;20100;-73
2023/03/15 02:03:28;;;;;;;20.20;5.52;;;;;;;-0.53;100.00;95283.00;1006817;29;20451;-73
2023/03/15 02:04:03;;;;;;;11.44;5.58;;;;;;;-0.52;100.00;95289.72;1010413;29;20029;-73
2023/03/15 02:04:48;;;;;;;14.70;5.88;;;;;;;-0.51;100.00;95290.50;1006689;29;20247;-73
2023/03/15 02:05:21;;;;;;;11.02;5.90;;;;;;;-0.60;100.00;95281.44;1006023;29;20017;-74
2023/03/15 02:05:54;;;;;;;10.52;5.64;;;;;;;-0.53;100.00;95293.28;1007067;29;20024;-75
2023/03/15 02:06:24;;;;;;;12.46;6.18;;;;;;;-0.59;100.00;95283.81;1010393;29;20578;-74
2023/03/15 02:06:58;;;;;;;17.30;6.45;;;;;;;-0.54;100.00;95293.47;1010484;29;20033;-73
2023/03/15 02:07:28;;;;;;;13.74;5.98;;;;;;;-0.52;100.00;95299.25;1009877;29;20108;-74
2023/03/15 02:07:59;;;;;;;13.98;5.75;;;;;;;-0.54;100.00;95301.22;1010542;29;20033;-73
2023/03/15 02:08:32;;;;;;;16.08;6.43;;;;;;;-0.61;100.00;95290.94;1014537;29;20099;-73
2023/03/15 02:09:08;;;;;;;11.04;5.98;;;;;;;-0.56;100.00;95298.06;1011717;29;20486;-73
2023/03/15 02:09:59;;;;;;;14.44;6.54;;;;;;;-0.58;100.00;95297.47;1010259;29;20016;-74
2023/03/15 02:10:52;;;;;;;9.60;5.24;;;;;;;-0.57;100.00;95312.75;1010251;29;20032;-74
2023/03/15 02:11:23;;;;;;;6.70;3.02;;;;;;;-0.58;100.00;95320.66;1014372;29;20024;-73
2023/03/15 02:11:53;;;;;;;10.22;4.00;;;;;;;-0.61;100.00;95319.28;1010430;29;20714;-73
2023/03/15 02:12:27;;;;;;;7.16;3.50;;;;;;;-0.56;100.00;95318.69;1006388;29;20032;-73
2023/03/15 02:12:58;;;;;;;4.02;2.38;;;;;;;-0.58;100.00;95318.88;1007313;29;20017;-73
2023/03/15 02:13:29;;;;;;;8.18;3.05;;;;;;;-0.59;100.00;95313.94;1010310;29;20076;-73
2023/03/15 02:13:59;;;;;;;7.78;3.90;;;;;;;-0.55;100.00;95327.97;1006921;29;20037;-73
2023/03/15 02:14:30;;;;;;;7.28;4.57;;;;;;;-0.58;100.00;95325.81;1006325;29;20510;-73
2023/03/15 02:15:03;;;;;;;4.92;2.92;;;;;;;-0.59;100.00;95327.59;1001422;29;20548;-74
2023/03/15 02:15:34;;;;;;;5.00;2.88;;;;;;;-0.58;100.00;95330.97;1006174;29;20029;-73
2023/03/15 02:16:05;;;;;;;9.07;2.95;;;;;;;-0.60;100.00;95331.19;1006327;29;20029;-73
2023/03/15 02:16:38;;;;;;;4.32;2.46;;;;;;;-0.62;100.00;95340.88;1006990;29;20080;-73
2023/03/15 02:17:09;;;;;;;5.64;2.72;;;;;;;-0.62;100.00;95335.72;1011433;29;20076;-74
2023/03/15 02:17:44;;;;;;;5.57;2.95;;;;;;;-0.80;100.00;95305.47;1011130;29;20085;-73
2023/03/15 02:18:15;;;;;;;4.14;2.54;;;;;;;-0.62;100.00;95346.03;1014664;29;20124;-74
2023/03/15 02:18:46;;;;;;;4.06;2.56;;;;;;;-0.67;100.00;95332.97;1002507;29;20041;-73
2023/03/15 02:19:48;;;;;;;3.33;2.05;;;;;;;-0.60;100.00;95335.53;1006571;29;20544;-73
2023/03/15 02:20:30;;;;;;;3.20;2.20;;;;;;;-0.61;100.00;95350.19;1002001;29;20235;-74
2023/03/15 02:21:21;;;;;;;7.50;2.94;;;;;;;-0.60;100.00;95346.63;1010604;29;20052;-74
2023/03/15 02:22:12;;;;;;;4.63;2.30;;;;;;;-0.59;100.00;95355.16;1011448;29;20059;-74
2023/03/15 02:22:42;;;;;;;;;;;;;;;-0.59;100.00;95358.50;1006663;29;20021;-73
2023/03/15 02:23:16;;;;;;;4.47;1.67;;;;;;;-0.67;100.00;95351.00;1010286;29;19912;-73
2023/03/15 02:23:49;;;;;;;9.46;2.74;;;;;;;-0.64;100.00;95354.94;1007720;29;20021;-73
2023/03/15 02:24:57;;;;;;;3.30;2.18;;;;;;;-0.62;100.00;95358.13;1015207;29;20043;-73
2023/03/15 02:25:55;;;;;;;2.48;1.70;;;;;;;-0.62;100.00;95364.06;1014144;29;20553;-72
2023/03/15 02:26:32;;;;;;;5.44;1.88;;;;;;;-0.66;100.00;95360.31;1019214;29;20020;-72
2023/03/15 02:27:02;;;;;;;4.84;2.18;;;;;;;-0.65;100.00;95354.16;1015025;29;20032;-72
2023/03/15 02:27:33;;;;;;;4.10;2.20;;;;;;;-0.67;100.00;95358.75;1011426;29;20040;-74
2023/03/15 02:28:04;;;;;;;3.50;2.22;;;;;;;-0.69;100.00;95352.22;1007566;29;20033;-72
2023/03/15 02:28:35;;;;;;;4.76;1.98;;;;;;;-0.67;100.00;95355.34;1011113;29;20028;-73
2023/03/15 02:29:05;;;;;;;4.07;2.47;;;;;;;-0.64;100.00;95357.53;1007758;29;20521;-73
2023/03/15 02:29:36;;;;;;;5.25;2.40;;;;;;;-0.72;100.00;95356.75;1007355;29;20029;-73
2023/03/15 02:30:09;;;;;;;4.57;2.42;;;;;;;-0.64;100.00;95362.69;1007369;29;20036;-72
2023/03/15 02:30:43;;;;;;;6.60;2.64;;;;;;;-0.68;100.00;95348.63;1007576;29;20053;-72
2023/03/15 02:31:13;;;;;;;6.80;2.40;;;;;;;-0.66;100.00;95355.16;1007427;29;20029;-73
2023/03/15 02:31:44;;;;;;;6.65;3.13;;;;;;;-0.61;100.00;95370.00;1007710;29;20400;-73
2023/03/15 02:32:14;;;;;;;6.15;2.97;;;;;;;-0.62;100.00;95365.84;1003493;29;20074;-73